createdAt,value
2022-08-15T00:02:33.791Z,22.80
2022-08-15T00:07:48.424Z,22.70
2022-08-15T00:12:51.259Z,22.60
2022-08-15T00:17:54.711Z,22.60
2022-08-15T00:22:57.932Z,22.60
2022-08-15T00:28:00.228Z,22.50
2022-08-15T00:33:18.825Z,22.50
2022-08-15T00:38:28.197Z,22.40
2022-08-15T00:43:48.192Z,22.30
2022-08-15T00:48:51.448Z,22.20
2022-08-15T00:53:58.560Z,22.10
2022-08-15T00:59:05.812Z,22.00
2022-08-15T01:04:18.021Z,22.00
2022-08-15T01:09:21.292Z,22.00
2022-08-15T01:14:55.846Z,21.90
2022-08-15T01:20:25.029Z,21.90
2022-08-15T01:26:42.385Z,21.80
2022-08-15T01:31:04.534Z,21.70
2022-08-15T01:36:32.846Z,21.60
2022-08-15T01:41:36.649Z,21.60
2022-08-15T01:46:52.815Z,21.60
2022-08-15T01:51:58.521Z,21.50
2022-08-15T01:57:01.199Z,21.40
2022-08-15T02:02:39.777Z,21.40
2022-08-15T02:07:32.532Z,21.30
2022-08-15T02:13:12.480Z,21.30
2022-08-15T02:18:00.318Z,21.30
2022-08-15T02:23:07.853Z,21.20
2022-08-15T02:28:34.799Z,21.20
2022-08-15T02:33:39.147Z,21.20
2022-08-15T02:38:47.452Z,21.20
2022-08-15T02:43:52.244Z,21.20
2022-08-15T02:48:57.282Z,21.10
2022-08-15T02:54:00.161Z,21.20
2022-08-15T02:59:22.643Z,21.20
2022-08-15T03:04:28.127Z,21.20
2022-08-15T03:09:32.165Z,21.30
2022-08-15T03:14:37.216Z,21.20
2022-08-15T03:19:39.867Z,21.10
2022-08-15T03:24:43.966Z,21.10
2022-08-15T03:29:50.437Z,21.20
2022-08-15T03:34:54.502Z,21.20
2022-08-15T03:39:58.291Z,21.30
2022-08-15T03:45:13.792Z,21.40
2022-08-15T03:50:24.790Z,21.40
2022-08-15T03:55:32.479Z,21.30
2022-08-15T04:00:51.535Z,21.30
2022-08-15T04:05:58.643Z,21.30
2022-08-15T04:11:02.948Z,21.30
2022-08-15T04:17:00.573Z,21.20
2022-08-15T04:21:27.068Z,21.30
2022-08-15T04:26:28.955Z,21.40
2022-08-15T04:31:32.685Z,21.30
2022-08-15T04:36:37.649Z,21.40
2022-08-15T04:41:39.545Z,21.60
2022-08-15T04:46:52.422Z,21.80
2022-08-15T04:51:55.425Z,22.10
2022-08-15T04:56:58.913Z,22.20
2022-08-15T05:02:49.494Z,22.40
2022-08-15T05:07:27.394Z,22.20
2022-08-15T05:12:33.201Z,22.00
2022-08-15T05:17:57.039Z,22.00
2022-08-15T05:23:08.121Z,22.30
2022-08-15T05:28:29.093Z,22.30
2022-08-15T05:33:56.494Z,22.50
2022-08-15T05:38:59.757Z,22.50
2022-08-15T05:44:03.803Z,22.60
2022-08-15T05:49:51.435Z,22.80
2022-08-15T05:55:17.475Z,22.90
2022-08-15T06:00:19.484Z,23.00
2022-08-15T06:05:33.700Z,23.20
2022-08-15T06:10:51.385Z,23.40
2022-08-15T06:16:46.498Z,23.50
2022-08-15T06:21:51.093Z,23.60
2022-08-15T06:27:00.941Z,23.80
2022-08-15T06:32:22.732Z,24.00
2022-08-15T06:38:00.124Z,24.20
2022-08-15T06:43:03.259Z,24.30
2022-08-15T06:48:59.367Z,24.50
2022-08-15T06:53:59.832Z,24.80
2022-08-15T06:59:38.162Z,24.90
2022-08-15T07:05:19.877Z,25.00
2022-08-15T07:10:38.189Z,25.30
2022-08-15T07:15:57.796Z,25.50
2022-08-15T07:21:12.251Z,25.60
2022-08-15T07:26:16.811Z,25.60
2022-08-15T07:31:29.462Z,25.60
2022-08-15T07:36:58.682Z,25.50
2022-08-15T07:42:28.760Z,25.30
2022-08-15T07:47:35.048Z,25.30
2022-08-15T07:52:55.053Z,25.50
2022-08-15T07:58:24.339Z,25.60
2022-08-15T08:03:34.139Z,25.90
2022-08-15T08:08:46.050Z,26.10
2022-08-15T08:14:40.672Z,26.20
2022-08-15T08:19:49.353Z,26.50
2022-08-15T08:25:15.601Z,26.60
2022-08-15T08:30:43.817Z,26.70
2022-08-15T08:35:55.254Z,26.80
2022-08-15T08:41:45.044Z,26.90
2022-08-15T08:47:16.087Z,27.20
2022-08-15T08:52:27.096Z,27.30
2022-08-15T08:57:41.985Z,27.30
2022-08-15T09:02:51.467Z,27.30
2022-08-15T09:07:58.157Z,27.40
2022-08-15T09:13:24.597Z,27.60
2022-08-15T09:18:34.848Z,27.70
2022-08-15T09:23:51.716Z,27.90
2022-08-15T09:29:23.191Z,28.10
2022-08-15T09:34:51.638Z,28.40
2022-08-15T09:41:11.575Z,28.60
2022-08-15T09:45:49.770Z,28.80
2022-08-15T09:51:19.524Z,29.10
2022-08-15T09:56:28.672Z,29.70
2022-08-15T10:01:41.897Z,30.20
2022-08-15T10:07:30.936Z,30.50
2022-08-15T10:12:34.488Z,31.00
2022-08-15T10:17:57.370Z,30.50
2022-08-15T10:23:01.291Z,30.70
2022-08-15T10:28:38.025Z,31.00
2022-08-15T10:33:35.540Z,31.10
2022-08-15T10:38:50.232Z,31.00
2022-08-15T10:44:34.359Z,30.40
2022-08-15T10:49:58.934Z,30.20
2022-08-15T10:55:55.992Z,30.30
2022-08-15T11:00:50.782Z,30.60
2022-08-15T11:06:07.030Z,30.20
2022-08-15T11:11:11.410Z,30.20
2022-08-15T11:16:31.704Z,30.10
2022-08-15T11:21:44.098Z,30.30
2022-08-15T11:26:53.686Z,30.30
2022-08-15T11:32:01.099Z,30.40
2022-08-15T11:37:27.596Z,30.70
2022-08-15T11:42:34.393Z,31.10
2022-08-15T11:47:46.375Z,30.90
2022-08-15T11:52:51.689Z,31.20
2022-08-15T11:57:58.267Z,31.60
2022-08-15T12:03:05.023Z,31.60
2022-08-15T12:08:28.642Z,31.20
2022-08-15T12:13:33.511Z,31.30
2022-08-15T12:18:49.465Z,31.60
2022-08-15T12:24:00.834Z,32.10
2022-08-15T12:29:04.921Z,32.40
2022-08-15T12:34:28.360Z,32.90
2022-08-15T12:39:35.912Z,33.20
2022-08-15T12:44:39.079Z,32.80
2022-08-15T12:49:47.546Z,32.80
2022-08-15T12:54:52.759Z,32.40
2022-08-15T12:59:56.208Z,30.90
2022-08-15T13:04:59.255Z,29.50
2022-08-15T13:10:34.003Z,28.90
2022-08-15T13:15:28.141Z,28.50
2022-08-15T13:20:57.252Z,27.90
2022-08-15T13:26:00.412Z,27.40
2022-08-15T13:31:06.273Z,26.60
2022-08-15T13:36:29.917Z,25.70
2022-08-15T13:41:48.393Z,25.60
2022-08-15T13:46:54.440Z,25.50
2022-08-15T13:52:25.089Z,25.00
2022-08-15T13:57:26.239Z,24.60
2022-08-15T14:02:35.803Z,24.40
2022-08-15T14:07:51.009Z,23.90
2022-08-15T14:12:57.069Z,23.60
2022-08-15T14:18:01.707Z,23.30
2022-08-15T14:23:04.049Z,23.20
2022-08-15T14:34:37.159Z,22.90
2022-08-15T14:38:59.397Z,23.20
2022-08-15T14:44:02.949Z,23.00
2022-08-15T14:49:08.157Z,23.10
2022-08-15T14:54:40.863Z,23.00
2022-08-15T14:59:55.891Z,22.80
2022-08-15T15:05:02.416Z,22.70
2022-08-15T15:10:07.044Z,22.80
2022-08-15T15:15:09.206Z,22.80
2022-08-15T15:20:18.263Z,23.00
2022-08-15T15:25:21.173Z,23.20
2022-08-15T15:30:23.271Z,23.20
2022-08-15T15:35:26.121Z,22.90
2022-08-15T15:40:28.763Z,23.00
2022-08-15T15:45:33.876Z,23.00
2022-08-15T15:50:35.871Z,23.10
2022-08-15T15:55:43.027Z,23.20
2022-08-15T16:00:47.253Z,22.90
2022-08-15T16:07:01.253Z,23.00
2022-08-15T16:11:26.046Z,23.10
2022-08-15T16:17:15.096Z,23.40
2022-08-15T16:22:50.873Z,23.40
2022-08-15T16:28:03.161Z,23.20
2022-08-15T16:33:08.853Z,23.20
2022-08-15T16:39:06.879Z,23.60
2022-08-15T16:43:54.698Z,23.50
2022-08-15T16:49:24.305Z,23.80
2022-08-15T16:55:01.362Z,24.20
2022-08-15T17:00:18.410Z,24.40
2022-08-15T17:05:59.987Z,24.50
2022-08-15T17:11:14.672Z,24.50
2022-08-15T17:16:41.005Z,24.50
2022-08-15T17:22:18.406Z,24.30
2022-08-15T17:27:56.895Z,24.20
2022-08-15T17:33:06.693Z,24.00
2022-08-15T17:38:09.274Z,23.90
2022-08-15T17:43:24.079Z,23.80
2022-08-15T17:48:29.888Z,23.60
2022-08-15T17:53:35.874Z,23.40
2022-08-15T17:58:53.982Z,23.20
2022-08-15T18:04:00.622Z,23.00
2022-08-15T18:09:11.672Z,22.80
2022-08-15T18:14:40.177Z,22.90
2022-08-15T18:19:37.338Z,22.90
2022-08-15T18:24:52.047Z,22.80
2022-08-15T18:30:02.073Z,22.70
2022-08-15T18:35:18.288Z,22.50
2022-08-15T18:40:53.322Z,22.50
2022-08-15T18:46:11.891Z,22.30
2022-08-15T18:51:16.439Z,22.10
2022-08-15T18:56:25.970Z,22.00
2022-08-15T19:01:32.893Z,22.00
2022-08-15T19:06:51.735Z,22.00
2022-08-15T19:12:07.197Z,22.00
2022-08-15T19:17:31.478Z,22.00
2022-08-15T19:22:33.850Z,22.00
2022-08-15T19:28:00.156Z,21.90
2022-08-15T19:33:19.783Z,21.90
2022-08-15T19:38:41.186Z,21.80
2022-08-15T19:44:01.751Z,21.80
2022-08-15T19:49:34.633Z,21.80
2022-08-15T19:55:39.402Z,21.90
2022-08-15T20:00:57.572Z,21.90
2022-08-15T20:06:20.973Z,22.00
2022-08-15T20:11:42.234Z,21.90
2022-08-15T20:17:29.216Z,21.90
2022-08-15T20:23:40.982Z,21.70
2022-08-15T20:28:44.266Z,21.60
2022-08-15T20:34:01.370Z,21.50
2022-08-15T20:39:05.725Z,21.50
2022-08-15T20:44:44.237Z,21.50
2022-08-15T20:49:48.045Z,21.60
2022-08-15T20:54:56.018Z,21.70
2022-08-15T20:59:58.179Z,21.80
2022-08-15T21:05:41.984Z,21.80
2022-08-15T21:11:11.097Z,21.90
2022-08-15T21:16:47.665Z,21.90
2022-08-15T21:21:56.167Z,21.80
2022-08-15T21:27:13.910Z,21.80
2022-08-15T21:32:32.458Z,21.70
2022-08-15T21:37:53.993Z,21.70
2022-08-15T21:42:56.175Z,21.70
2022-08-15T21:48:34.553Z,21.70
2022-08-15T21:53:37.695Z,21.60
2022-08-15T21:59:15.812Z,21.60
2022-08-15T22:04:39.018Z,21.50
2022-08-15T22:10:01.765Z,21.50
2022-08-15T22:15:12.150Z,21.40
2022-08-15T22:20:32.712Z,21.30
2022-08-15T22:25:41.677Z,21.20
2022-08-15T22:30:46.284Z,21.10
2022-08-15T22:35:53.027Z,21.00
2022-08-15T22:40:55.227Z,20.90
2022-08-15T22:46:29.135Z,20.90
2022-08-15T22:51:41.087Z,20.80
2022-08-15T22:56:52.734Z,20.70
2022-08-15T23:02:05.699Z,20.70
2022-08-15T23:07:24.651Z,20.70
2022-08-15T23:12:33.855Z,20.60
2022-08-15T23:18:00.515Z,20.60
2022-08-15T23:23:06.636Z,20.50
2022-08-15T23:28:08.558Z,20.50
2022-08-15T23:33:27.540Z,20.50
2022-08-15T23:38:32.690Z,20.50
2022-08-15T23:43:34.357Z,20.40
2022-08-15T23:48:57.054Z,20.40
2022-08-15T23:53:59.021Z,20.40
2022-08-15T23:59:01.011Z,20.30
